sensor_id;sensor_type;location;lat;lon;timestamp;temperature;humidity
53978;DHT22;39886;47.984;-1.586;2022-11-24T00:01:52;18.10;65.10
53978;DHT22;39886;47.984;-1.586;2022-11-24T00:04:18;18.10;64.40
53978;DHT22;39886;47.984;-1.586;2022-11-24T00:06:44;18.10;64.40
53978;DHT22;39886;47.984;-1.586;2022-11-24T00:09:10;18.10;64.40
53978;DHT22;39886;47.984;-1.586;2022-11-24T00:11:36;18.10;64.40
53978;DHT22;39886;47.984;-1.586;2022-11-24T00:14:03;18.10;64.50
53978;DHT22;39886;47.984;-1.586;2022-11-24T00:16:31;18.10;64.50
53978;DHT22;39886;47.984;-1.586;2022-11-24T00:18:58;18.10;64.50
53978;DHT22;39886;47.984;-1.586;2022-11-24T00:21:26;18.10;64.50
53978;DHT22;39886;47.984;-1.586;2022-11-24T00:23:52;18.10;64.50
53978;DHT22;39886;47.984;-1.586;2022-11-24T00:26:27;18.10;64.50
53978;DHT22;39886;47.984;-1.586;2022-11-24T00:28:55;18.00;65.10
53978;DHT22;39886;47.984;-1.586;2022-11-24T00:31:23;18.00;64.50
53978;DHT22;39886;47.984;-1.586;2022-11-24T00:33:51;18.10;64.50
53978;DHT22;39886;47.984;-1.586;2022-11-24T00:36:17;18.00;64.50
53978;DHT22;39886;47.984;-1.586;2022-11-24T00:38:44;18.00;64.50
53978;DHT22;39886;47.984;-1.586;2022-11-24T00:41:10;18.00;64.60
53978;DHT22;39886;47.984;-1.586;2022-11-24T00:43:36;18.00;64.60
53978;DHT22;39886;47.984;-1.586;2022-11-24T00:46:01;18.00;64.60
53978;DHT22;39886;47.984;-1.586;2022-11-24T00:48:27;18.00;64.60
53978;DHT22;39886;47.984;-1.586;2022-11-24T00:51:05;18.00;64.60
53978;DHT22;39886;47.984;-1.586;2022-11-24T00:53:31;18.00;64.60
53978;DHT22;39886;47.984;-1.586;2022-11-24T00:55:58;18.00;64.70
53978;DHT22;39886;47.984;-1.586;2022-11-24T00:58:24;18.00;64.60
53978;DHT22;39886;47.984;-1.586;2022-11-24T01:00:51;18.00;64.70
53978;DHT22;39886;47.984;-1.586;2022-11-24T01:03:18;18.00;64.70
53978;DHT22;39886;47.984;-1.586;2022-11-24T01:05:44;18.00;64.70
53978;DHT22;39886;47.984;-1.586;2022-11-24T01:08:10;18.00;64.70
53978;DHT22;39886;47.984;-1.586;2022-11-24T01:10:36;18.00;64.70
53978;DHT22;39886;47.984;-1.586;2022-11-24T01:13:02;18.00;64.70
53978;DHT22;39886;47.984;-1.586;2022-11-24T01:15:28;18.00;64.70
53978;DHT22;39886;47.984;-1.586;2022-11-24T01:17:55;18.00;64.70
53978;DHT22;39886;47.984;-1.586;2022-11-24T01:20:21;18.00;64.70
53978;DHT22;39886;47.984;-1.586;2022-11-24T01:22:49;18.00;64.80
53978;DHT22;39886;47.984;-1.586;2022-11-24T01:25:15;18.00;64.80
53978;DHT22;39886;47.984;-1.586;2022-11-24T01:27:41;17.90;64.70
53978;DHT22;39886;47.984;-1.586;2022-11-24T01:30:07;18.00;64.80
53978;DHT22;39886;47.984;-1.586;2022-11-24T01:32:33;17.90;64.70
53978;DHT22;39886;47.984;-1.586;2022-11-24T01:35:01;17.90;64.80
53978;DHT22;39886;47.984;-1.586;2022-11-24T01:37:27;17.90;64.80
53978;DHT22;39886;47.984;-1.586;2022-11-24T01:39:53;17.90;64.80
53978;DHT22;39886;47.984;-1.586;2022-11-24T01:42:19;17.90;65.30
53978;DHT22;39886;47.984;-1.586;2022-11-24T01:44:47;17.90;64.80
53978;DHT22;39886;47.984;-1.586;2022-11-24T01:47:38;17.90;64.90
53978;DHT22;39886;47.984;-1.586;2022-11-24T01:50:14;17.90;64.80
53978;DHT22;39886;47.984;-1.586;2022-11-24T01:52:51;17.90;64.90
53978;DHT22;39886;47.984;-1.586;2022-11-24T01:55:22;17.90;64.90
53978;DHT22;39886;47.984;-1.586;2022-11-24T01:57:50;17.80;64.80
53978;DHT22;39886;47.984;-1.586;2022-11-24T02:00:18;17.90;65.60
53978;DHT22;39886;47.984;-1.586;2022-11-24T02:02:44;17.80;64.90
53978;DHT22;39886;47.984;-1.586;2022-11-24T02:05:17;17.80;64.90
53978;DHT22;39886;47.984;-1.586;2022-11-24T02:07:44;17.90;64.90
53978;DHT22;39886;47.984;-1.586;2022-11-24T02:10:13;17.90;64.90
53978;DHT22;39886;47.984;-1.586;2022-11-24T02:12:43;17.90;65.00
53978;DHT22;39886;47.984;-1.586;2022-11-24T02:15:10;17.90;65.00
53978;DHT22;39886;47.984;-1.586;2022-11-24T02:17:36;17.80;64.90
53978;DHT22;39886;47.984;-1.586;2022-11-24T02:20:05;17.80;64.90
53978;DHT22;39886;47.984;-1.586;2022-11-24T02:27:58;17.80;64.90
53978;DHT22;39886;47.984;-1.586;2022-11-24T02:30:25;17.80;65.00
53978;DHT22;39886;47.984;-1.586;2022-11-24T02:32:51;17.80;65.00
53978;DHT22;39886;47.984;-1.586;2022-11-24T02:35:18;17.80;65.00
53978;DHT22;39886;47.984;-1.586;2022-11-24T02:37:44;17.80;65.00
53978;DHT22;39886;47.984;-1.586;2022-11-24T02:40:10;17.80;65.00
53978;DHT22;39886;47.984;-1.586;2022-11-24T02:42:42;17.80;65.00
53978;DHT22;39886;47.984;-1.586;2022-11-24T02:45:09;17.80;65.00
53978;DHT22;39886;47.984;-1.586;2022-11-24T02:47:35;17.80;65.00
53978;DHT22;39886;47.984;-1.586;2022-11-24T02:50:01;17.80;65.10
53978;DHT22;39886;47.984;-1.586;2022-11-24T02:52:27;17.80;65.10
53978;DHT22;39886;47.984;-1.586;2022-11-24T02:54:53;17.80;65.10
53978;DHT22;39886;47.984;-1.586;2022-11-24T02:57:21;17.80;65.10
53978;DHT22;39886;47.984;-1.586;2022-11-24T02:59:47;17.80;65.10
53978;DHT22;39886;47.984;-1.586;2022-11-24T03:02:12;17.70;65.00
53978;DHT22;39886;47.984;-1.586;2022-11-24T03:04:38;17.70;65.00
53978;DHT22;39886;47.984;-1.586;2022-11-24T03:07:04;17.80;65.10
53978;DHT22;39886;47.984;-1.586;2022-11-24T03:09:29;17.70;65.10
53978;DHT22;39886;47.984;-1.586;2022-11-24T03:11:55;17.70;65.00
53978;DHT22;39886;47.984;-1.586;2022-11-24T03:14:21;17.70;65.10
53978;DHT22;39886;47.984;-1.586;2022-11-24T03:16:47;17.70;65.10
53978;DHT22;39886;47.984;-1.586;2022-11-24T03:19:13;17.70;65.70
53978;DHT22;39886;47.984;-1.586;2022-11-24T03:21:38;17.70;65.10
53978;DHT22;39886;47.984;-1.586;2022-11-24T03:24:04;17.70;65.10
53978;DHT22;39886;47.984;-1.586;2022-11-24T03:26:32;17.70;65.10
53978;DHT22;39886;47.984;-1.586;2022-11-24T03:28:58;17.70;65.10
53978;DHT22;39886;47.984;-1.586;2022-11-24T03:31:23;17.70;65.10
53978;DHT22;39886;47.984;-1.586;2022-11-24T03:33:49;17.70;65.10
53978;DHT22;39886;47.984;-1.586;2022-11-24T03:36:15;17.70;65.10
53978;DHT22;39886;47.984;-1.586;2022-11-24T03:38:41;17.70;65.10
53978;DHT22;39886;47.984;-1.586;2022-11-24T03:41:07;17.70;65.10
53978;DHT22;39886;47.984;-1.586;2022-11-24T03:43:33;17.70;65.20
53978;DHT22;39886;47.984;-1.586;2022-11-24T03:45:58;17.70;65.10
53978;DHT22;39886;47.984;-1.586;2022-11-24T03:48:24;17.70;65.10
53978;DHT22;39886;47.984;-1.586;2022-11-24T03:50:58;17.70;65.20
53978;DHT22;39886;47.984;-1.586;2022-11-24T03:53:26;17.70;65.20
53978;DHT22;39886;47.984;-1.586;2022-11-24T03:55:52;17.70;65.20
53978;DHT22;39886;47.984;-1.586;2022-11-24T03:58:18;17.70;65.20
53978;DHT22;39886;47.984;-1.586;2022-11-24T04:00:44;17.60;65.10
53978;DHT22;39886;47.984;-1.586;2022-11-24T04:03:10;17.70;65.20
53978;DHT22;39886;47.984;-1.586;2022-11-24T04:05:36;17.60;65.20
53978;DHT22;39886;47.984;-1.586;2022-11-24T04:08:03;17.60;65.10
53978;DHT22;39886;47.984;-1.586;2022-11-24T04:10:31;17.60;65.20
53978;DHT22;39886;47.984;-1.586;2022-11-24T04:12:58;17.60;65.20
53978;DHT22;39886;47.984;-1.586;2022-11-24T04:15:23;17.70;65.20
53978;DHT22;39886;47.984;-1.586;2022-11-24T04:17:49;17.60;65.20
53978;DHT22;39886;47.984;-1.586;2022-11-24T04:20:16;17.60;65.20
53978;DHT22;39886;47.984;-1.586;2022-11-24T04:22:42;17.60;65.20
53978;DHT22;39886;47.984;-1.586;2022-11-24T04:25:09;17.60;65.20
53978;DHT22;39886;47.984;-1.586;2022-11-24T04:27:36;17.60;65.20
53978;DHT22;39886;47.984;-1.586;2022-11-24T04:30:04;17.60;65.20
53978;DHT22;39886;47.984;-1.586;2022-11-24T04:32:30;17.60;65.20
53978;DHT22;39886;47.984;-1.586;2022-11-24T04:34:56;17.60;65.20
53978;DHT22;39886;47.984;-1.586;2022-11-24T04:37:21;17.60;65.20
53978;DHT22;39886;47.984;-1.586;2022-11-24T04:39:47;17.60;65.20
53978;DHT22;39886;47.984;-1.586;2022-11-24T04:42:13;17.60;65.20
53978;DHT22;39886;47.984;-1.586;2022-11-24T04:44:38;17.60;65.20
53978;DHT22;39886;47.984;-1.586;2022-11-24T04:47:04;17.60;65.20
53978;DHT22;39886;47.984;-1.586;2022-11-24T04:49:30;17.60;65.30
53978;DHT22;39886;47.984;-1.586;2022-11-24T04:51:56;17.60;65.30
53978;DHT22;39886;47.984;-1.586;2022-11-24T04:54:22;17.60;65.30
53978;DHT22;39886;47.984;-1.586;2022-11-24T04:56:51;17.60;65.30
53978;DHT22;39886;47.984;-1.586;2022-11-24T04:59:17;17.50;65.20
53978;DHT22;39886;47.984;-1.586;2022-11-24T05:01:44;17.60;65.30
53978;DHT22;39886;47.984;-1.586;2022-11-24T05:04:12;17.60;65.90
53978;DHT22;39886;47.984;-1.586;2022-11-24T05:06:38;17.60;65.30
53978;DHT22;39886;47.984;-1.586;2022-11-24T05:09:04;17.50;65.20
53978;DHT22;39886;47.984;-1.586;2022-11-24T05:11:30;17.60;65.30
53978;DHT22;39886;47.984;-1.586;2022-11-24T05:13:56;17.60;65.30
53978;DHT22;39886;47.984;-1.586;2022-11-24T05:16:22;17.50;65.20
53978;DHT22;39886;47.984;-1.586;2022-11-24T05:18:47;17.50;65.20
53978;DHT22;39886;47.984;-1.586;2022-11-24T05:21:13;17.50;65.30
53978;DHT22;39886;47.984;-1.586;2022-11-24T05:23:39;17.60;65.30
53978;DHT22;39886;47.984;-1.586;2022-11-24T05:26:05;17.50;65.30
53978;DHT22;39886;47.984;-1.586;2022-11-24T05:28:31;17.50;65.30
53978;DHT22;39886;47.984;-1.586;2022-11-24T05:31:00;17.50;65.30
53978;DHT22;39886;47.984;-1.586;2022-11-24T05:33:26;17.50;65.30
53978;DHT22;39886;47.984;-1.586;2022-11-24T05:35:58;17.50;65.30
53978;DHT22;39886;47.984;-1.586;2022-11-24T05:38:24;17.50;65.30
53978;DHT22;39886;47.984;-1.586;2022-11-24T05:40:51;17.50;65.30
53978;DHT22;39886;47.984;-1.586;2022-11-24T05:43:16;17.50;65.30
53978;DHT22;39886;47.984;-1.586;2022-11-24T05:45:43;17.50;65.30
53978;DHT22;39886;47.984;-1.586;2022-11-24T05:48:11;17.50;65.30
53978;DHT22;39886;47.984;-1.586;2022-11-24T05:50:37;17.50;65.30
53978;DHT22;39886;47.984;-1.586;2022-11-24T05:53:11;17.50;65.30
53978;DHT22;39886;47.984;-1.586;2022-11-24T05:55:38;17.50;65.30
53978;DHT22;39886;47.984;-1.586;2022-11-24T05:58:07;17.50;65.30
53978;DHT22;39886;47.984;-1.586;2022-11-24T06:00:34;17.50;65.30
53978;DHT22;39886;47.984;-1.586;2022-11-24T06:03:00;17.60;65.10
53978;DHT22;39886;47.984;-1.586;2022-11-24T06:05:27;17.70;64.90
53978;DHT22;39886;47.984;-1.586;2022-11-24T06:07:53;17.70;64.70
53978;DHT22;39886;47.984;-1.586;2022-11-24T06:10:21;17.80;64.50
53978;DHT22;39886;47.984;-1.586;2022-11-24T06:12:48;17.90;64.40
53978;DHT22;39886;47.984;-1.586;2022-11-24T06:15:14;18.00;64.30
53978;DHT22;39886;47.984;-1.586;2022-11-24T06:17:40;18.00;64.20
53978;DHT22;39886;47.984;-1.586;2022-11-24T06:20:07;18.10;64.10
53978;DHT22;39886;47.984;-1.586;2022-11-24T06:22:34;18.20;63.90
53978;DHT22;39886;47.984;-1.586;2022-11-24T06:24:59;18.20;63.90
53978;DHT22;39886;47.984;-1.586;2022-11-24T06:27:25;18.30;63.80
53978;DHT22;39886;47.984;-1.586;2022-11-24T06:29:51;18.30;64.30
53978;DHT22;39886;47.984;-1.586;2022-11-24T06:32:17;18.40;63.60
53978;DHT22;39886;47.984;-1.586;2022-11-24T06:34:43;18.40;63.50
53978;DHT22;39886;47.984;-1.586;2022-11-24T06:37:09;18.50;63.40
53978;DHT22;39886;47.984;-1.586;2022-11-24T06:39:35;18.50;63.20
53978;DHT22;39886;47.984;-1.586;2022-11-24T06:42:00;18.60;63.20
53978;DHT22;39886;47.984;-1.586;2022-11-24T06:44:26;18.60;63.00
53978;DHT22;39886;47.984;-1.586;2022-11-24T06:46:52;18.70;63.00
53978;DHT22;39886;47.984;-1.586;2022-11-24T06:49:18;18.70;62.90
53978;DHT22;39886;47.984;-1.586;2022-11-24T06:51:44;18.70;62.70
53978;DHT22;39886;47.984;-1.586;2022-11-24T06:54:17;18.70;62.60
53978;DHT22;39886;47.984;-1.586;2022-11-24T06:56:46;18.80;62.50
53978;DHT22;39886;47.984;-1.586;2022-11-24T06:59:19;18.90;62.50
53978;DHT22;39886;47.984;-1.586;2022-11-24T07:01:44;18.90;62.40
53978;DHT22;39886;47.984;-1.586;2022-11-24T07:04:11;18.90;62.50
53978;DHT22;39886;47.984;-1.586;2022-11-24T07:06:37;18.90;62.30
53978;DHT22;39886;47.984;-1.586;2022-11-24T07:09:06;19.00;62.40
53978;DHT22;39886;47.984;-1.586;2022-11-24T07:11:32;19.10;62.20
53978;DHT22;39886;47.984;-1.586;2022-11-24T07:13:57;19.10;61.70
53978;DHT22;39886;47.984;-1.586;2022-11-24T07:16:24;19.10;61.30
53978;DHT22;39886;47.984;-1.586;2022-11-24T07:18:51;19.20;61.20
53978;DHT22;39886;47.984;-1.586;2022-11-24T07:21:21;19.20;60.90
53978;DHT22;39886;47.984;-1.586;2022-11-24T07:23:51;19.20;60.70
53978;DHT22;39886;47.984;-1.586;2022-11-24T07:26:18;19.30;60.70
53978;DHT22;39886;47.984;-1.586;2022-11-24T07:28:44;19.30;60.60
53978;DHT22;39886;47.984;-1.586;2022-11-24T07:31:12;19.30;60.50
53978;DHT22;39886;47.984;-1.586;2022-11-24T07:33:39;19.40;60.20
53978;DHT22;39886;47.984;-1.586;2022-11-24T07:36:06;19.40;60.50
53978;DHT22;39886;47.984;-1.586;2022-11-24T07:38:33;19.40;60.30
53978;DHT22;39886;47.984;-1.586;2022-11-24T07:41:05;19.50;60.00
53978;DHT22;39886;47.984;-1.586;2022-11-24T07:43:32;19.50;60.00
53978;DHT22;39886;47.984;-1.586;2022-11-24T07:45:59;19.50;60.00
53978;DHT22;39886;47.984;-1.586;2022-11-24T07:48:25;19.50;59.80
53978;DHT22;39886;47.984;-1.586;2022-11-24T07:50:51;19.60;59.70
53978;DHT22;39886;47.984;-1.586;2022-11-24T07:53:17;19.60;59.50
53978;DHT22;39886;47.984;-1.586;2022-11-24T07:55:43;19.60;59.80
53978;DHT22;39886;47.984;-1.586;2022-11-24T07:58:08;19.70;59.90
53978;DHT22;39886;47.984;-1.586;2022-11-24T08:00:34;19.70;60.00
53978;DHT22;39886;47.984;-1.586;2022-11-24T08:03:00;19.80;60.20
53978;DHT22;39886;47.984;-1.586;2022-11-24T08:05:25;19.80;60.20
53978;DHT22;39886;47.984;-1.586;2022-11-24T08:07:52;19.80;59.90
53978;DHT22;39886;47.984;-1.586;2022-11-24T08:10:18;19.90;60.20
53978;DHT22;39886;47.984;-1.586;2022-11-24T08:12:44;20.00;60.40
53978;DHT22;39886;47.984;-1.586;2022-11-24T08:15:10;20.00;60.70
53978;DHT22;39886;47.984;-1.586;2022-11-24T08:17:35;20.10;60.30
53978;DHT22;39886;47.984;-1.586;2022-11-24T08:20:04;20.10;60.60
53978;DHT22;39886;47.984;-1.586;2022-11-24T08:22:30;20.20;59.30
53978;DHT22;39886;47.984;-1.586;2022-11-24T08:24:56;20.20;59.30
53978;DHT22;39886;47.984;-1.586;2022-11-24T08:27:21;20.40;61.70
53978;DHT22;39886;47.984;-1.586;2022-11-24T08:29:47;20.50;60.00
53978;DHT22;39886;47.984;-1.586;2022-11-24T08:32:13;20.50;59.10
53978;DHT22;39886;47.984;-1.586;2022-11-24T08:34:39;20.50;59.40
53978;DHT22;39886;47.984;-1.586;2022-11-24T08:37:05;20.60;58.90
53978;DHT22;39886;47.984;-1.586;2022-11-24T08:39:31;20.60;59.30
53978;DHT22;39886;47.984;-1.586;2022-11-24T08:41:57;20.70;59.40
53978;DHT22;39886;47.984;-1.586;2022-11-24T08:44:23;20.70;59.80
53978;DHT22;39886;47.984;-1.586;2022-11-24T08:46:49;20.70;59.00
53978;DHT22;39886;47.984;-1.586;2022-11-24T08:49:15;20.80;58.90
53978;DHT22;39886;47.984;-1.586;2022-11-24T08:51:41;20.90;59.00
53978;DHT22;39886;47.984;-1.586;2022-11-24T08:54:09;20.90;58.60
53978;DHT22;39886;47.984;-1.586;2022-11-24T08:56:38;20.90;58.40
53978;DHT22;39886;47.984;-1.586;2022-11-24T08:59:03;20.90;59.20
53978;DHT22;39886;47.984;-1.586;2022-11-24T09:01:30;20.90;59.20
53978;DHT22;39886;47.984;-1.586;2022-11-24T09:03:56;21.00;59.40
53978;DHT22;39886;47.984;-1.586;2022-11-24T09:06:25;21.00;58.50
53978;DHT22;39886;47.984;-1.586;2022-11-24T09:08:52;21.10;58.40
53978;DHT22;39886;47.984;-1.586;2022-11-24T09:11:19;21.10;58.80
53978;DHT22;39886;47.984;-1.586;2022-11-24T09:13:45;21.10;59.10
53978;DHT22;39886;47.984;-1.586;2022-11-24T09:16:16;21.20;58.40
53978;DHT22;39886;47.984;-1.586;2022-11-24T09:18:42;21.20;58.40
53978;DHT22;39886;47.984;-1.586;2022-11-24T09:21:19;21.20;58.00
53978;DHT22;39886;47.984;-1.586;2022-11-24T09:23:46;21.30;59.10
53978;DHT22;39886;47.984;-1.586;2022-11-24T09:26:21;21.30;58.40
53978;DHT22;39886;47.984;-1.586;2022-11-24T09:28:47;21.30;58.30
53978;DHT22;39886;47.984;-1.586;2022-11-24T09:31:15;21.30;58.10
53978;DHT22;39886;47.984;-1.586;2022-11-24T09:33:42;21.40;57.80
53978;DHT22;39886;47.984;-1.586;2022-11-24T09:36:08;21.50;58.00
53978;DHT22;39886;47.984;-1.586;2022-11-24T09:38:34;21.50;58.60
53978;DHT22;39886;47.984;-1.586;2022-11-24T09:41:21;21.50;58.90
53978;DHT22;39886;47.984;-1.586;2022-11-24T09:52:13;21.50;58.30
53978;DHT22;39886;47.984;-1.586;2022-11-24T09:54:50;21.60;58.50
53978;DHT22;39886;47.984;-1.586;2022-11-24T09:57:20;21.60;58.30
53978;DHT22;39886;47.984;-1.586;2022-11-24T09:59:48;21.70;58.20
53978;DHT22;39886;47.984;-1.586;2022-11-24T10:02:14;21.70;57.60
53978;DHT22;39886;47.984;-1.586;2022-11-24T10:04:45;21.80;57.50
53978;DHT22;39886;47.984;-1.586;2022-11-24T10:07:21;21.80;57.70
53978;DHT22;39886;47.984;-1.586;2022-11-24T10:15:36;21.60;58.20
53978;DHT22;39886;47.984;-1.586;2022-11-24T10:18:20;21.50;58.80
53978;DHT22;39886;47.984;-1.586;2022-11-24T10:28:55;21.30;59.00
53978;DHT22;39886;47.984;-1.586;2022-11-24T10:31:31;21.30;59.20
53978;DHT22;39886;47.984;-1.586;2022-11-24T10:34:17;21.20;59.90
53978;DHT22;39886;47.984;-1.586;2022-11-24T10:42:30;21.10;59.80
53978;DHT22;39886;47.984;-1.586;2022-11-24T10:45:00;21.10;60.00
53978;DHT22;39886;47.984;-1.586;2022-11-24T10:47:26;21.10;60.00
53978;DHT22;39886;47.984;-1.586;2022-11-24T10:52:28;21.00;60.50
53978;DHT22;39886;47.984;-1.586;2022-11-24T10:54:58;21.10;60.40
53978;DHT22;39886;47.984;-1.586;2022-11-24T10:57:30;21.00;60.60
53978;DHT22;39886;47.984;-1.586;2022-11-24T10:59:56;21.00;60.70
53978;DHT22;39886;47.984;-1.586;2022-11-24T11:04:52;21.00;60.50
53978;DHT22;39886;47.984;-1.586;2022-11-24T11:07:20;21.00;60.90
53978;DHT22;39886;47.984;-1.586;2022-11-24T11:09:47;21.00;60.70
53978;DHT22;39886;47.984;-1.586;2022-11-24T11:12:21;21.00;62.10
53978;DHT22;39886;47.984;-1.586;2022-11-24T11:14:49;21.00;60.90
53978;DHT22;39886;47.984;-1.586;2022-11-24T11:17:44;21.00;60.80
53978;DHT22;39886;47.984;-1.586;2022-11-24T11:20:26;21.00;61.00
53978;DHT22;39886;47.984;-1.586;2022-11-24T11:33:32;21.00;60.90
53978;DHT22;39886;47.984;-1.586;2022-11-24T11:36:08;20.90;61.20
53978;DHT22;39886;47.984;-1.586;2022-11-24T11:38:37;20.90;61.20
53978;DHT22;39886;47.984;-1.586;2022-11-24T11:41:04;20.90;61.30
53978;DHT22;39886;47.984;-1.586;2022-11-24T11:43:37;20.80;61.30
53978;DHT22;39886;47.984;-1.586;2022-11-24T11:46:13;20.80;61.30
53978;DHT22;39886;47.984;-1.586;2022-11-24T11:48:44;20.80;62.00
53978;DHT22;39886;47.984;-1.586;2022-11-24T11:59:53;20.70;61.50
53978;DHT22;39886;47.984;-1.586;2022-11-24T12:05:04;20.70;61.20
53978;DHT22;39886;47.984;-1.586;2022-11-24T12:10:36;20.70;61.20
53978;DHT22;39886;47.984;-1.586;2022-11-24T12:16:07;20.60;61.30
53978;DHT22;39886;47.984;-1.586;2022-11-24T12:18:59;20.60;61.80
53978;DHT22;39886;47.984;-1.586;2022-11-24T12:24:00;20.60;61.30
53978;DHT22;39886;47.984;-1.586;2022-11-24T12:26:57;20.60;61.30
53978;DHT22;39886;47.984;-1.586;2022-11-24T12:48:15;21.10;60.80
53978;DHT22;39886;47.984;-1.586;2022-11-24T12:50:45;21.20;60.30
53978;DHT22;39886;47.984;-1.586;2022-11-24T12:53:16;21.30;60.30
53978;DHT22;39886;47.984;-1.586;2022-11-24T12:55:43;21.30;60.00
53978;DHT22;39886;47.984;-1.586;2022-11-24T12:58:30;21.40;60.30
53978;DHT22;39886;47.984;-1.586;2022-11-24T13:07:09;21.50;59.80
53978;DHT22;39886;47.984;-1.586;2022-11-24T13:09:38;21.60;60.30
53978;DHT22;39886;47.984;-1.586;2022-11-24T13:12:23;21.70;61.00
53978;DHT22;39886;47.984;-1.586;2022-11-24T13:14:48;21.70;60.50
53978;DHT22;39886;47.984;-1.586;2022-11-24T13:17:25;21.70;61.20
53978;DHT22;39886;47.984;-1.586;2022-11-24T13:20:19;21.70;61.30
53978;DHT22;39886;47.984;-1.586;2022-11-24T13:22:52;21.60;61.00
53978;DHT22;39886;47.984;-1.586;2022-11-24T13:25:26;21.60;60.90
53978;DHT22;39886;47.984;-1.586;2022-11-24T13:28:00;21.60;61.20
53978;DHT22;39886;47.984;-1.586;2022-11-24T13:35:40;21.50;61.50
53978;DHT22;39886;47.984;-1.586;2022-11-24T13:41:09;21.50;61.80
53978;DHT22;39886;47.984;-1.586;2022-11-24T13:43:34;21.50;61.90
53978;DHT22;39886;47.984;-1.586;2022-11-24T13:46:02;21.40;61.60
53978;DHT22;39886;47.984;-1.586;2022-11-24T13:58:44;21.40;62.00
53978;DHT22;39886;47.984;-1.586;2022-11-24T14:01:24;21.40;61.90
53978;DHT22;39886;47.984;-1.586;2022-11-24T14:04:11;21.30;62.10
53978;DHT22;39886;47.984;-1.586;2022-11-24T14:09:41;21.30;62.20
53978;DHT22;39886;47.984;-1.586;2022-11-24T14:12:19;21.30;62.10
53978;DHT22;39886;47.984;-1.586;2022-11-24T14:14:47;21.30;62.20
53978;DHT22;39886;47.984;-1.586;2022-11-24T14:17:20;21.30;62.60
53978;DHT22;39886;47.984;-1.586;2022-11-24T14:19:49;21.30;62.60
53978;DHT22;39886;47.984;-1.586;2022-11-24T14:22:21;21.20;62.60
53978;DHT22;39886;47.984;-1.586;2022-11-24T14:24:52;21.30;62.90
53978;DHT22;39886;47.984;-1.586;2022-11-24T14:27:23;21.20;62.80
53978;DHT22;39886;47.984;-1.586;2022-11-24T14:32:38;21.20;63.00
53978;DHT22;39886;47.984;-1.586;2022-11-24T14:35:26;21.20;63.30
53978;DHT22;39886;47.984;-1.586;2022-11-24T14:37:53;21.20;63.20
53978;DHT22;39886;47.984;-1.586;2022-11-24T14:48:22;21.20;63.60
53978;DHT22;39886;47.984;-1.586;2022-11-24T14:50:49;21.20;63.60
53978;DHT22;39886;47.984;-1.586;2022-11-24T14:53:17;21.20;63.30
53978;DHT22;39886;47.984;-1.586;2022-11-24T14:55:44;21.20;63.90
53978;DHT22;39886;47.984;-1.586;2022-11-24T15:04:57;21.20;63.40
53978;DHT22;39886;47.984;-1.586;2022-11-24T15:07:25;21.10;64.20
53978;DHT22;39886;47.984;-1.586;2022-11-24T15:09:52;21.10;64.00
53978;DHT22;39886;47.984;-1.586;2022-11-24T15:12:36;21.20;63.90
53978;DHT22;39886;47.984;-1.586;2022-11-24T15:17:52;21.10;63.90
53978;DHT22;39886;47.984;-1.586;2022-11-24T15:25:43;21.20;64.20
53978;DHT22;39886;47.984;-1.586;2022-11-24T15:28:08;21.10;64.40
53978;DHT22;39886;47.984;-1.586;2022-11-24T15:30:35;21.10;64.10
